.
WxDataArchive / Data Records for 2008-02-13
2008-02-12 February 2008 2008-02-14

Data Records for Wednesday, 13 February 2008

Time	Temp	Chill	HIndex	Humid	Dewpt	 Wind 	HiWind	WindDir	Rain 	Barom 
-----	----	-----	------	-----	-----	------	------	-------	-----	----- 
00:00	14.6	14.6	14.6	81	9.9	0	1	292	0.00	29.826 
00:05	14.3	14.3	14.3	81	9.6	0	1	292	0.00	29.829 
00:10	14.1	14.1	14.1	81	9.4	0	1	292	0.00	29.829 
00:15	14.0	14.0	14.0	82	9.5	0	1	292	0.00	29.826 
00:20	13.8	13.8	13.8	82	9.3	0	1	292	0.00	29.831 
00:25	13.6	13.6	13.6	82	9.1	0	1	292	0.00	29.830 
00:30	13.6	13.6	13.6	82	9.1	1	3	270	0.00	29.831 
00:35	13.5	13.5	13.5	82	9.0	0	1	248	0.00	29.832 
00:40	13.5	13.5	13.5	83	9.3	0	2	248	0.00	29.837 
00:45	13.3	13.3	13.3	83	9.1	0	2	248	0.00	29.840 
00:50	13.1	13.1	13.1	83	8.9	0	2	248	0.00	29.841 
00:55	12.9	12.9	12.9	83	8.7	0	2	248	0.00	29.842 
01:00	12.9	12.9	12.9	83	8.7	1	4	248	0.00	29.848 
01:05	12.8	12.8	12.8	83	8.6	0	3	248	0.00	29.848 
01:10	12.6	12.6	12.6	83	8.4	0	2	248	0.00	29.846 
01:15	12.4	12.4	12.4	83	8.2	0	2	248	0.00	29.849 
01:20	12.4	12.4	12.4	83	8.2	0	2	248	0.00	29.852 
01:25	12.4	12.4	12.4	83	8.2	0	1	248	0.00	29.852 
01:30	12.3	12.3	12.3	83	8.1	0	1	248	0.00	29.855 
01:35	12.1	12.1	12.1	83	7.9	0	1	248	0.00	29.856 
01:40	12.1	12.1	12.1	83	7.9	0	2	248	0.00	29.856 
01:45	11.9	11.9	11.9	83	7.8	0	2	248	0.00	29.855 
01:50	11.9	11.9	11.9	83	7.8	0	1	248	0.00	29.855 
01:55	11.9	11.9	11.9	83	7.8	0	2	248	0.00	29.854 
02:00	11.7	11.7	11.7	83	7.6	0	2	248	0.00	29.851 
02:05	11.6	11.6	11.6	84	7.7	0	2	248	0.00	29.851 
02:10	11.6	11.6	11.6	84	7.7	0	1	248	0.00	29.851 
02:15	11.4	11.4	11.4	84	7.5	0	2	248	0.00	29.851 
02:20	11.4	11.4	11.4	84	7.5	0	2	248	0.00	29.850 
02:25	11.4	11.4	11.4	84	7.5	0	1	248	0.00	29.850 
02:30	11.4	11.4	11.4	84	7.5	0	2	248	0.00	29.847 
02:35	11.4	11.4	11.4	84	7.5	0	2	248	0.00	29.846 
02:40	11.2	11.2	11.2	84	7.3	0	2	270	0.00	29.850 
02:45	11.2	11.2	11.2	84	7.3	1	3	248	0.00	29.852 
02:50	11.1	11.1	11.1	84	7.2	0	2	248	0.00	29.854 
02:55	10.9	10.9	10.9	84	7.0	0	2	248	0.00	29.854 
03:00	10.7	10.7	10.7	84	6.8	0	1	248	0.00	29.852 
03:05	10.7	10.7	10.7	84	6.8	0	2	248	0.00	29.853 
03:10	10.7	10.7	10.7	84	6.8	1	3	248	0.00	29.851 
03:15	10.5	10.5	10.5	84	6.6	0	2	248	0.00	29.850 
03:20	10.5	10.5	10.5	84	6.6	1	3	248	0.00	29.851 
03:25	10.5	10.5	10.5	84	6.6	0	2	292	0.00	29.848 
03:30	10.4	10.4	10.4	84	6.5	0	2	315	0.00	29.845 
03:35	10.4	10.4	10.4	84	6.5	0	1	315	0.00	29.842 
03:40	10.2	10.2	10.2	84	6.3	1	3	270	0.00	29.844 
03:45	10.2	10.2	10.2	84	6.3	0	2	270	0.00	29.844 
03:50	10.0	10.0	10.0	84	6.2	1	2	270	0.00	29.847 
03:55	10.0	10.0	10.0	84	6.2	0	2	292	0.00	29.852 
04:00	9.9	9.9	9.9	84	6.1	0	1	292	0.00	29.855 
04:05	9.9	9.9	9.9	84	6.1	0	2	292	0.00	29.856 
04:10	9.9	9.9	9.9	84	6.1	0	1	248	0.00	29.857 
04:15	9.7	9.7	9.7	84	5.9	0	1	248	0.00	29.861 
04:20	9.7	9.7	9.7	84	5.9	0	2	248	0.00	29.867 
04:25	9.9	9.9	9.9	84	6.1	0	2	248	0.00	29.871 
04:30	10.0	10.0	10.0	84	6.2	0	2	270	0.00	29.873 
04:35	10.4	10.4	10.4	84	6.5	0	2	315	0.00	29.873 
04:40	10.7	10.7	10.7	84	6.8	1	5	270	0.00	29.874 
04:45	10.9	10.9	10.9	83	6.8	1	5	270	0.00	29.873 
04:50	11.1	11.1	11.1	83	7.0	1	4	270	0.00	29.872 
04:55	11.2	11.2	11.2	83	7.1	1	5	270	0.00	29.872 
05:00	11.4	11.4	11.4	82	7.0	1	3	270	0.00	29.872 
05:05	11.4	11.4	11.4	82	7.0	0	2	270	0.00	29.871 
05:10	11.6	11.6	11.6	83	7.5	1	3	292	0.00	29.871 
05:15	11.7	11.7	11.7	82	7.3	0	3	270	0.00	29.871 
05:20	11.9	11.9	11.9	82	7.5	0	1	270	0.00	29.873 
05:25	11.7	11.7	11.7	82	7.3	0	1	270	0.00	29.874 
05:30	11.6	11.6	11.6	82	7.2	0	0	---	0.00	29.877 
05:35	11.4	11.4	11.4	82	7.0	0	1	270	0.00	29.878 
05:40	11.1	11.1	11.1	82	6.7	0	0	---	0.00	29.882 
05:45	10.7	10.7	10.7	82	6.3	0	0	---	0.00	29.880 
05:50	10.5	10.5	10.5	82	6.1	0	0	---	0.00	29.883 
05:55	10.0	10.0	10.0	82	5.6	0	0	---	0.00	29.887 
06:00	9.7	9.7	9.7	82	5.3	0	0	---	0.00	29.886 
06:05	9.3	9.3	9.3	82	4.9	0	0	---	0.00	29.889 
06:10	9.0	9.0	9.0	82	4.6	0	0	---	0.00	29.891 
06:15	8.6	8.6	8.6	82	4.3	0	0	---	0.00	29.890 
06:20	8.1	8.1	8.1	82	3.8	0	0	---	0.00	29.895 
06:25	7.7	7.7	7.7	81	3.1	0	0	---	0.00	29.898 
06:30	7.4	7.4	7.4	81	2.8	0	0	---	0.00	29.898 
06:35	7.0	7.0	7.0	82	2.7	0	0	---	0.00	29.896 
06:40	7.0	7.0	7.0	83	2.9	0	0	---	0.00	29.899 
06:45	7.2	7.2	7.2	83	3.1	0	0	---	0.00	29.900 
06:50	7.4	7.4	7.4	84	3.6	0	0	---	0.00	29.900 
06:55	7.4	7.4	7.4	84	3.6	0	0	---	0.00	29.903 
07:00	7.4	7.4	7.4	84	3.6	0	0	---	0.00	29.904 
07:05	7.0	7.0	7.0	84	3.2	0	0	---	0.00	29.907 
07:10	6.9	6.9	6.9	84	3.1	0	0	---	0.00	29.910 
07:15	6.7	6.7	6.7	84	2.9	0	0	---	0.00	29.911 
07:20	6.3	6.3	6.3	83	2.3	0	0	---	0.00	29.913 
07:25	6.3	6.3	6.3	84	2.5	0	0	---	0.00	29.920 
07:30	6.5	6.5	6.5	84	2.7	0	0	---	0.00	29.924 
07:35	6.7	6.7	6.7	84	2.9	0	0	---	0.00	29.925 
07:40	6.9	6.9	6.9	84	3.1	0	0	---	0.00	29.925 
07:45	7.0	7.0	7.0	84	3.2	0	0	---	0.00	29.926 
07:50	7.0	7.0	7.0	84	3.2	0	0	---	0.00	29.926 
07:55	7.0	7.0	7.0	84	3.2	0	0	---	0.00	29.927 
08:00	7.2	7.2	7.2	84	3.4	0	0	---	0.00	29.927 
08:05	7.4	7.4	7.4	85	3.9	0	0	---	0.00	29.927 
08:10	7.9	7.9	7.9	85	4.3	0	0	---	0.00	29.924 
08:15	8.3	8.3	8.3	85	4.7	0	0	---	0.00	29.926 
08:20	9.0	9.0	9.0	86	5.7	0	0	---	0.00	29.926 
08:25	9.9	9.9	9.9	86	6.6	0	1	270	0.00	29.924 
08:30	10.5	10.5	10.5	86	7.2	0	2	270	0.00	29.927 
08:35	11.1	11.1	11.1	86	7.7	0	2	270	0.00	29.929 
08:40	11.6	11.6	11.6	86	8.2	0	2	270	0.00	29.930 
08:45	12.1	12.1	12.1	85	8.5	0	2	270	0.00	29.928 
08:50	12.4	12.4	12.4	85	8.8	0	1	270	0.00	29.931 
08:55	12.8	12.8	12.8	85	9.2	0	2	270	0.00	29.931 
09:00	13.3	13.3	13.3	85	9.7	0	2	270	0.00	29.932 
09:05	13.8	13.8	13.8	84	9.9	0	1	270	0.00	29.931 
09:10	14.3	14.3	14.3	84	10.4	0	1	270	0.00	29.934 
09:15	14.6	14.6	14.6	83	10.4	1	2	270	0.00	29.936 
09:20	15.1	15.1	15.1	82	10.6	1	2	270	0.00	29.941 
09:25	15.6	15.6	15.6	81	10.8	1	4	248	0.00	29.941 
09:30	15.9	15.9	15.9	80	10.8	1	3	270	0.00	29.938 
09:35	16.2	16.2	16.2	80	11.1	1	3	270	0.00	29.940 
09:40	16.5	16.5	16.5	79	11.1	1	3	270	0.00	29.941 
09:45	16.7	16.7	16.7	78	11.1	1	3	270	0.00	29.944 
09:50	17.2	17.2	17.2	78	11.5	0	2	270	0.00	29.947 
09:55	17.7	17.7	17.7	77	11.7	0	2	270	0.00	29.943 
10:00	18.0	18.0	18.0	76	11.7	1	2	270	0.00	29.944 
10:05	18.0	18.0	18.0	76	11.7	1	4	315	0.00	29.947 
10:10	18.1	18.1	18.1	75	11.5	1	3	315	0.00	29.947 
10:15	18.3	18.3	18.3	75	11.7	1	4	292	0.00	29.948 
10:20	18.4	18.4	18.4	75	11.8	1	3	315	0.00	29.949 
10:25	18.8	18.8	18.8	75	12.2	1	3	292	0.00	29.946 
10:30	19.1	19.1	19.1	74	12.2	1	3	315	0.00	29.947 
10:35	19.4	19.4	19.4	74	12.5	0	2	315	0.00	29.947 
10:40	19.9	19.9	19.9	73	12.7	1	2	315	0.01	29.949 
10:45	20.0	20.0	20.0	73	12.8	1	3	315	0.01	29.950 
10:50	20.0	20.0	20.0	72	12.5	1	2	292	0.00	29.948 
10:55	20.2	20.2	20.2	71	12.3	0	2	292	0.01	29.946 
11:00	20.5	20.5	20.5	71	12.6	1	2	292	0.00	29.949 
11:05	20.6	20.6	20.6	71	12.7	0	2	292	0.01	29.949 
11:10	20.6	20.6	20.6	70	12.4	1	3	292	0.00	29.951 
11:15	21.0	21.0	21.0	71	13.1	1	4	315	0.01	29.950 
11:20	21.0	21.0	21.0	70	12.8	1	4	248	0.00	29.952 
11:25	21.1	21.1	21.1	70	12.9	1	3	315	0.01	29.954 
11:30	21.4	21.4	21.4	70	13.2	1	3	270	0.00	29.951 
11:35	21.8	21.8	21.8	70	13.5	1	3	248	0.01	29.954 
11:40	21.9	21.9	21.9	68	13.0	1	4	248	0.00	29.956 
11:45	22.2	22.2	22.2	68	13.3	0	3	292	0.00	29.956 
11:50	22.2	22.2	22.2	67	12.9	1	4	315	0.01	29.957 
11:55	22.9	22.9	22.9	68	13.9	1	3	315	0.00	29.955 
12:00	22.9	22.9	22.9	65	12.9	1	3	315	0.00	29.957 
12:05	23.0	23.0	23.0	66	13.4	1	4	338	0.01	29.959 
12:10	23.0	23.0	23.0	65	13.0	1	4	270	0.00	29.955 
12:15	22.9	22.9	22.9	65	12.9	1	4	315	0.00	29.951 
12:20	23.3	23.3	23.3	67	14.0	1	4	315	0.01	29.949 
12:25	23.5	23.5	23.5	66	13.8	1	2	270	0.00	29.946 
12:30	23.8	23.8	23.8	66	14.1	1	3	0	0.00	29.945 
12:35	23.9	23.9	23.9	65	13.9	1	3	292	0.00	29.944 
12:40	24.2	24.2	24.2	65	14.2	1	5	270	0.00	29.942 
12:45	24.1	24.1	24.1	63	13.4	1	4	338	0.01	29.941 
12:50	24.2	24.2	24.2	64	13.8	1	4	315	0.00	29.936 
12:55	24.5	24.5	24.5	65	14.4	1	2	292	0.00	29.934 
13:00	24.5	24.5	24.5	63	13.7	1	4	338	0.00	29.931 
13:05	24.7	24.7	24.7	63	13.9	1	3	270	0.00	29.929 
13:10	25.1	25.1	25.1	64	14.7	1	3	292	0.00	29.929 
13:15	25.1	25.1	25.1	64	14.7	1	3	248	0.00	29.929 
13:20	25.0	25.0	25.0	64	14.6	1	4	315	0.00	29.929 
13:25	25.1	25.1	25.1	64	14.7	1	4	292	0.00	29.929 
13:30	25.4	25.4	25.4	63	14.6	1	3	292	0.01	29.928 
13:35	25.6	25.6	25.6	64	15.1	1	4	315	0.00	29.926 
13:40	25.6	25.6	25.6	63	14.8	1	3	315	0.00	29.927 
13:45	25.4	25.4	25.4	64	14.9	1	5	315	0.00	29.928 
13:50	25.7	25.7	25.7	65	15.6	1	3	315	0.00	29.925 
13:55	25.6	25.6	25.6	63	14.8	1	4	315	0.00	29.926 
14:00	25.4	25.4	25.4	63	14.6	2	5	292	0.00	29.924 
14:05	25.6	25.6	25.6	63	14.8	1	5	0	0.01	29.921 
14:10	25.6	25.6	25.6	64	15.1	2	4	315	0.00	29.921 
14:15	25.3	25.3	25.3	64	14.9	2	5	315	0.00	29.920 
14:20	25.0	25.0	25.0	65	14.9	1	4	315	0.00	29.916 
14:25	25.1	25.1	25.1	66	15.4	1	4	292	0.00	29.918 
14:30	25.1	25.1	25.1	66	15.4	1	3	292	0.00	29.917 
14:35	25.0	25.0	25.0	65	14.9	2	6	315	0.00	29.917 
14:40	24.8	24.8	24.8	65	14.7	1	6	315	0.00	29.919 
14:45	24.7	24.7	24.7	65	14.6	2	7	292	0.00	29.918 
14:50	24.8	24.8	24.8	66	15.1	1	3	338	0.00	29.920 
14:55	25.0	25.0	25.0	66	15.3	1	4	292	0.00	29.920 
15:00	25.0	25.0	25.0	67	15.6	1	4	292	0.00	29.921 
15:05	24.8	24.8	24.8	68	15.8	1	4	292	0.01	29.924 
15:10	24.7	24.7	24.7	69	16.0	1	3	338	0.00	29.925 
15:15	24.7	24.7	24.7	70	16.3	1	2	315	0.00	29.922 
15:20	24.5	24.5	24.5	71	16.5	0	2	315	0.00	29.921 
15:25	24.5	24.5	24.5	72	16.8	1	3	315	0.00	29.922 
15:30	24.5	24.5	24.5	72	16.8	1	4	292	0.00	29.926 
15:35	24.5	24.5	24.5	69	15.8	1	3	315	0.00	29.928 
15:40	24.5	24.5	24.5	69	15.8	1	5	315	0.00	29.930 
15:45	24.7	24.7	24.7	67	15.3	2	5	270	0.00	29.931 
15:50	24.7	24.7	24.7	67	15.3	1	3	315	0.00	29.932 
15:55	24.8	24.8	24.8	66	15.1	1	6	270	0.00	29.931 
16:00	25.0	25.0	25.0	66	15.3	1	2	292	0.00	29.932 
16:05	24.8	24.8	24.8	66	15.1	0	1	292	0.00	29.930 
16:10	25.1	25.1	25.1	67	15.7	0	2	292	0.00	29.930 
16:15	25.1	25.1	25.1	66	15.4	1	4	292	0.00	29.930 
16:20	25.1	25.1	25.1	67	15.7	1	3	292	0.00	29.932 
16:25	25.3	25.3	25.3	68	16.2	0	2	248	0.00	29.937 
16:30	25.3	25.3	25.3	68	16.2	0	2	248	0.00	29.942 
16:35	25.3	25.3	25.3	66	15.6	0	2	248	0.00	29.944 
16:40	25.3	25.3	25.3	67	15.9	1	6	248	0.00	29.945 
16:45	25.1	25.1	25.1	66	15.4	2	5	270	0.00	29.943 
16:50	25.0	25.0	25.0	67	15.6	2	6	248	0.00	29.946 
16:55	25.0	25.0	25.0	67	15.6	0	2	338	0.00	29.947 
17:00	25.1	25.1	25.1	68	16.1	1	3	270	0.00	29.951 
17:05	25.1	25.1	25.1	69	16.4	2	5	270	0.00	29.955 
17:10	25.0	25.0	25.0	69	16.3	1	5	248	0.00	29.959 
17:15	25.0	25.0	25.0	69	16.3	1	3	270	0.00	29.960 
17:20	25.0	25.0	25.0	70	16.6	1	3	248	0.00	29.963 
17:25	25.0	25.0	25.0	69	16.3	1	4	248	0.00	29.965 
17:30	25.0	25.0	25.0	69	16.3	1	2	270	0.00	29.968 
17:35	24.8	24.8	24.8	69	16.1	2	5	248	0.00	29.973 
17:40	24.8	24.8	24.8	69	16.1	1	3	270	0.00	29.977 
17:45	25.0	25.0	25.0	69	16.3	1	3	248	0.00	29.978 
17:50	25.0	25.0	25.0	68	16.0	1	3	270	0.00	29.978 
17:55	24.8	24.8	24.8	67	15.4	1	3	338	0.00	29.978 
18:00	24.5	24.5	24.5	67	15.1	1	3	315	0.00	29.980 
18:05	24.2	24.2	24.2	66	14.5	0	3	315	0.00	29.984 
18:10	24.1	24.1	24.1	67	14.8	0	1	315	0.00	29.984 
18:15	23.8	23.8	23.8	67	14.5	0	1	315	0.00	29.984 
18:20	23.5	23.5	23.5	68	14.5	0	1	315	0.00	29.987 
18:25	23.2	23.2	23.2	68	14.2	0	1	315	0.00	29.987 
18:30	23.0	23.0	23.0	68	14.0	0	3	270	0.00	29.990 
18:35	22.7	22.7	22.7	68	13.8	0	1	270	0.00	29.995 
18:40	22.4	22.4	22.4	68	13.5	0	0	---	0.00	29.997 
18:45	22.1	22.1	22.1	69	13.5	0	0	---	0.00	30.000 
18:50	21.6	21.6	21.6	69	13.0	0	0	---	0.00	30.004 
18:55	21.3	21.3	21.3	70	13.1	0	0	---	0.00	30.008 
19:00	20.8	20.8	20.8	71	12.9	0	0	---	0.00	30.013 
19:05	20.5	20.5	20.5	72	12.9	0	0	---	0.00	30.016 
19:10	20.2	20.2	20.2	72	12.6	0	0	---	0.00	30.019 
19:15	19.7	19.7	19.7	73	12.5	0	0	---	0.00	30.020 
19:20	19.4	19.4	19.4	74	12.5	0	0	---	0.00	30.026 
19:25	19.2	19.2	19.2	75	12.6	0	0	---	0.00	30.026 
19:30	18.8	18.8	18.8	75	12.2	0	0	---	0.00	30.029 
19:35	18.3	18.3	18.3	76	12.0	0	0	---	0.00	30.034 
19:40	18.0	18.0	18.0	77	12.0	0	0	---	0.00	30.036 
19:45	17.8	17.8	17.8	77	11.8	0	0	---	0.00	30.038 
19:50	17.3	17.3	17.3	78	11.6	0	0	---	0.00	30.037 
19:55	17.2	17.2	17.2	79	11.8	0	1	270	0.00	30.037 
20:00	17.3	17.3	17.3	80	12.2	0	1	270	0.00	30.037 
20:05	17.5	17.5	17.5	80	12.4	0	1	270	0.00	30.033 
20:10	18.1	18.1	18.1	80	13.0	0	2	270	0.00	30.036 
20:15	18.6	18.6	18.6	79	13.2	0	2	270	0.00	30.040 
20:20	18.9	18.9	18.9	78	13.2	0	2	270	0.00	30.043 
20:25	19.1	19.1	19.1	77	13.1	0	1	270	0.00	30.043 
20:30	19.2	19.2	19.2	77	13.2	0	2	270	0.00	30.043 
20:35	19.2	19.2	19.2	76	12.9	0	2	270	0.00	30.043 
20:40	19.1	19.1	19.1	74	12.2	0	3	270	0.00	30.044 
20:45	18.9	18.9	18.9	73	11.7	0	2	248	0.00	30.043 
20:50	18.9	18.9	18.9	73	11.7	0	1	248	0.00	30.043 
20:55	18.6	18.6	18.6	73	11.4	0	1	248	0.00	30.037 
21:00	18.6	18.6	18.6	72	11.1	1	3	248	0.00	30.036 
21:05	18.4	18.4	18.4	72	10.9	0	1	248	0.00	30.029 
21:10	18.3	18.3	18.3	71	10.5	0	2	248	0.00	30.031 
21:15	18.1	18.1	18.1	71	10.3	0	1	248	0.00	30.034 
21:20	18.0	18.0	18.0	72	10.5	0	1	248	0.00	30.032 
21:25	17.8	17.8	17.8	72	10.3	0	2	248	0.00	30.032 
21:30	17.7	17.7	17.7	72	10.2	0	2	248	0.00	30.034 
21:35	17.7	17.7	17.7	72	10.2	0	3	248	0.00	30.035 
21:40	17.5	17.5	17.5	71	9.7	0	1	248	0.00	30.037 
21:45	17.3	17.3	17.3	71	9.5	0	2	248	0.00	30.038 
21:50	17.2	17.2	17.2	71	9.4	0	1	248	0.00	30.040 
21:55	17.0	17.0	17.0	71	9.2	0	2	248	0.00	30.040 
22:00	16.9	16.9	16.9	71	9.2	0	2	248	0.00	30.041 
22:05	16.7	16.7	16.7	71	9.0	0	2	248	0.00	30.039 
22:10	16.7	16.7	16.7	71	9.0	0	3	248	0.00	30.039 
22:15	16.7	16.7	16.7	71	9.0	1	3	248	0.00	30.040 
22:20	16.5	16.5	16.5	71	8.8	0	1	248	0.00	30.042 
22:25	16.5	16.5	16.5	71	8.8	1	2	248	0.00	30.040 
22:30	16.4	16.4	16.4	71	8.7	0	3	248	0.00	30.041 
22:35	16.2	16.2	16.2	71	8.5	0	2	248	0.00	30.041 
22:40	16.2	16.2	16.2	70	8.2	0	1	248	0.00	30.041 
22:45	16.1	16.1	16.1	70	8.1	0	2	248	0.00	30.040 
22:50	16.1	16.1	16.1	70	8.1	0	2	248	0.00	30.041 
22:55	15.9	15.9	15.9	70	7.9	0	2	248	0.00	30.041 
23:00	15.9	15.9	15.9	70	7.9	1	2	248	0.00	30.040 
23:05	15.7	15.7	15.7	70	7.7	0	1	248	0.00	30.038 
23:10	15.6	15.6	15.6	70	7.6	0	1	248	0.00	30.030 
23:15	15.4	15.4	15.4	70	7.4	0	1	248	0.00	30.027 
23:20	15.1	15.1	15.1	70	7.1	0	1	248	0.00	30.025 
23:25	14.8	14.8	14.8	70	6.8	0	0	---	0.00	30.024 
23:30	14.4	14.4	14.4	71	6.7	0	0	---	0.00	30.025 
23:35	14.0	14.0	14.0	71	6.4	0	0	---	0.00	30.025 
23:40	13.6	13.6	13.6	71	6.0	0	0	---	0.00	30.031 
23:45	13.3	13.3	13.3	72	6.0	0	0	---	0.00	30.034 
23:50	12.9	12.9	12.9	73	5.9	0	0	---	0.00	30.035 
23:55	12.6	12.6	12.6	73	5.6	0	0	---	0.00	30.039 

CoCoRaHS
IN-AL-39
A2 Web Hosting
Creative Commons License
GoDaddy
Look for:

loaded 2017-10-19 14:30:04 • last modified 2010-11-18 10:43:29
Privacy PolicyDisclaimer
• wx.awcolley.com is powered by PmWiki v.2002016 •
• all content (unless otherwise noted) © 2017 A W Colley